Terminal Aerodrome Forecast
Issued by NWS Glasgow, MT

Home | Current Version | Previous Version | Text Only | Print | Product List | Glossary On
Versions: 1 2 3 4 5 6 7 8 9 10 11 12 13 14 15
000
FTUS45 KGGW 221700
TAFGGW
TAF
KGGW 221720Z 2218/2318 30017KT P6SM VCSH OVC014
     FM230000 32014KT P6SM OVC015
     FM231200 31009KT P6SM BKN029=

USA.gov is the U.S. government's official web portal to all federal, state and local government web resources and services.